Impacts METAR Board
IDs:

KASD - Slidell Arpt, LA, US

Updated at: 0300 UTC 23 Oct 2018
Potential Impact None Slight Moderate High
Time 22/15Z 22/16Z 22/17Z 22/18Z 22/19Z 22/20Z 22/21Z 22/22Z 22/23Z 23/00Z 23/01Z 23/02Z 23/03Z
Temp57 65 69 73 75 77 76 74 73 70 70 68 67
Dewpt47 51 55 57 59 59 59 62 63 64 64 64 63
Altim30.21 30.19 30.18 30.15 30.13 30.11 30.11 30.11 30.11 30.11 30.13 30.14 30.15
VIS10 10 10 10 10 10 10 10 10 10 10 10 10
CIG-- -- -- -- -- -- -- -- 85 -- 70 70 --
CoverCLRCLRCLRCLRSCTCLRFEWFEWBKNSCTOVCBKNFEW
FltCatVFRVFRVFRVFRVFRVFRVFRVFRVFRVFRVFRVFRVFR
WX---------------------RA---RA
WDir1020208008090130800036010
WSpd7 7 8 4 4 5 3 3 3 0 0 3 4
WGst-- -- -- -- -- -- -- -- -- -- -- -- --
Raw hourly METARs
KASD 221453Z AUTO 01007KT 10SM CLR 14/08 A3021 RMK AO2 SLP228 T01390083 51010
KASD 221553Z AUTO 02007KT 10SM CLR 18/11 A3019 RMK AO2 SLP224 T01830106
KASD 221653Z AUTO 02008KT 10SM CLR 21/13 A3018 RMK AO2 SLP218 T02060128
KASD 221753Z AUTO 08004KT 10SM CLR 23/14 A3015 RMK AO2 SLP211 T02280139 10228 20083 58017
KASD 221853Z AUTO VRB04KT 10SM SCT075 24/15 A3013 RMK AO2 SLP201 T02390150
KASD 221953Z AUTO 08005KT 10SM CLR 25/15 A3011 RMK AO2 SLP195 T02500150
KASD 222053Z AUTO 09003KT 10SM FEW039 24/15 A3011 RMK AO2 SLP196 T02440150 55015
KASD 222153Z AUTO 13003KT 10SM FEW037 23/17 A3011 RMK AO2 SLP196 T02330167
KASD 222253Z AUTO 08003KT 10SM BKN085 23/17 A3011 RMK AO2 SLP196 T02280172
KASD 222353Z AUTO 00000KT 10SM SCT080 21/18 A3011 RMK AO2 SLP196 T02110178 10250 20206 53000
KASD 230053Z AUTO 00000KT 10SM -RA OVC070 21/18 A3013 RMK AO2 RAB48 SLP202 P0000 T02110178
KASD 230153Z AUTO 36003KT 10SM BKN070 BKN110 20/18 A3014 RMK AO2 RAE28 SLP205 P0000 T02000178
KASD 230253Z AUTO 01004KT 10SM -RA FEW065 19/17 A3015 RMK AO2 RAB39 SLP208 P0000 60000 T01940172 51012



Page loaded:  03:30 UTC  |   08:30 PM Pacific  |   09:30 PM Mountain  |   10:30 PM Central  |   11:30 PM Eastern

 

ADVISORIES

FORECASTS

FORECASTS

OBSERVATIONS

USER TOOLS

ABOUT US